sensor_id;sensor_type;location;lat;lon;timestamp;P1;durP1;ratioP1;P2;durP2;ratioP2
39654;SDS011;25336;59.944;11.010;2024-03-22T00:01:47;0.40;;;0.40;;
39654;SDS011;25336;59.944;11.010;2024-03-22T00:04:13;1.55;;;0.50;;
39654;SDS011;25336;59.944;11.010;2024-03-22T00:06:40;1.27;;;1.15;;
39654;SDS011;25336;59.944;11.010;2024-03-22T00:09:07;0.40;;;0.40;;
39654;SDS011;25336;59.944;11.010;2024-03-22T00:11:32;0.40;;;0.40;;
39654;SDS011;25336;59.944;11.010;2024-03-22T00:13:58;0.40;;;0.40;;
39654;SDS011;25336;59.944;11.010;2024-03-22T00:16:27;0.52;;;0.52;;
39654;SDS011;25336;59.944;11.010;2024-03-22T00:18:53;0.55;;;0.40;;
39654;SDS011;25336;59.944;11.010;2024-03-22T00:21:18;0.40;;;0.40;;
39654;SDS011;25336;59.944;11.010;2024-03-22T00:23:45;0.30;;;0.30;;
39654;SDS011;25336;59.944;11.010;2024-03-22T00:26:10;0.45;;;0.45;;
39654;SDS011;25336;59.944;11.010;2024-03-22T00:28:36;0.40;;;0.40;;
39654;SDS011;25336;59.944;11.010;2024-03-22T00:31:02;0.40;;;0.40;;
39654;SDS011;25336;59.944;11.010;2024-03-22T00:33:28;0.30;;;0.30;;
39654;SDS011;25336;59.944;11.010;2024-03-22T00:35:53;0.40;;;0.40;;
39654;SDS011;25336;59.944;11.010;2024-03-22T00:38:19;0.85;;;0.45;;
39654;SDS011;25336;59.944;11.010;2024-03-22T00:40:45;0.43;;;0.43;;
39654;SDS011;25336;59.944;11.010;2024-03-22T00:43:10;0.43;;;0.43;;
39654;SDS011;25336;59.944;11.010;2024-03-22T00:45:36;0.35;;;0.35;;
39654;SDS011;25336;59.944;11.010;2024-03-22T00:48:02;0.50;;;0.50;;
39654;SDS011;25336;59.944;11.010;2024-03-22T00:50:27;1.73;;;0.50;;
39654;SDS011;25336;59.944;11.010;2024-03-22T00:52:54;0.40;;;0.40;;
39654;SDS011;25336;59.944;11.010;2024-03-22T00:55:21;0.40;;;0.40;;
39654;SDS011;25336;59.944;11.010;2024-03-22T00:57:47;0.40;;;0.40;;
39654;SDS011;25336;59.944;11.010;2024-03-22T01:00:13;0.60;;;0.40;;
39654;SDS011;25336;59.944;11.010;2024-03-22T01:02:40;0.40;;;0.40;;
39654;SDS011;25336;59.944;11.010;2024-03-22T01:05:06;0.43;;;0.43;;
39654;SDS011;25336;59.944;11.010;2024-03-22T01:07:32;0.40;;;0.40;;
39654;SDS011;25336;59.944;11.010;2024-03-22T01:09:58;0.45;;;0.40;;
39654;SDS011;25336;59.944;11.010;2024-03-22T01:12:24;0.40;;;0.40;;
39654;SDS011;25336;59.944;11.010;2024-03-22T01:14:50;0.80;;;0.50;;
39654;SDS011;25336;59.944;11.010;2024-03-22T01:17:16;0.47;;;0.47;;
39654;SDS011;25336;59.944;11.010;2024-03-22T01:19:41;1.35;;;0.40;;
39654;SDS011;25336;59.944;11.010;2024-03-22T01:22:07;0.50;;;0.50;;
39654;SDS011;25336;59.944;11.010;2024-03-22T01:24:34;0.47;;;0.47;;
39654;SDS011;25336;59.944;11.010;2024-03-22T01:27:00;0.45;;;0.40;;
39654;SDS011;25336;59.944;11.010;2024-03-22T01:29:25;0.40;;;0.40;;
39654;SDS011;25336;59.944;11.010;2024-03-22T01:31:52;0.40;;;0.40;;
39654;SDS011;25336;59.944;11.010;2024-03-22T01:34:18;0.90;;;0.50;;
39654;SDS011;25336;59.944;11.010;2024-03-22T01:36:43;0.40;;;0.40;;
39654;SDS011;25336;59.944;11.010;2024-03-22T01:39:09;0.47;;;0.45;;
39654;SDS011;25336;59.944;11.010;2024-03-22T01:41:36;0.60;;;0.60;;
39654;SDS011;25336;59.944;11.010;2024-03-22T01:44:01;0.50;;;0.50;;
39654;SDS011;25336;59.944;11.010;2024-03-22T01:46:27;0.63;;;0.60;;
39654;SDS011;25336;59.944;11.010;2024-03-22T01:48:53;0.90;;;0.85;;
39654;SDS011;25336;59.944;11.010;2024-03-22T01:51:19;0.60;;;0.60;;
39654;SDS011;25336;59.944;11.010;2024-03-22T01:53:44;0.85;;;0.70;;
39654;SDS011;25336;59.944;11.010;2024-03-22T01:56:10;1.58;;;0.60;;
39654;SDS011;25336;59.944;11.010;2024-03-22T01:58:36;1.45;;;1.00;;
39654;SDS011;25336;59.944;11.010;2024-03-22T02:01:02;0.80;;;0.80;;
39654;SDS011;25336;59.944;11.010;2024-03-22T02:03:28;1.40;;;0.50;;
39654;SDS011;25336;59.944;11.010;2024-03-22T02:05:53;0.75;;;0.75;;
39654;SDS011;25336;59.944;11.010;2024-03-22T02:08:19;1.25;;;0.80;;
39654;SDS011;25336;59.944;11.010;2024-03-22T02:10:45;1.02;;;1.02;;
39654;SDS011;25336;59.944;11.010;2024-03-22T02:13:11;2.67;;;0.95;;
39654;SDS011;25336;59.944;11.010;2024-03-22T02:15:37;2.35;;;0.75;;
39654;SDS011;25336;59.944;11.010;2024-03-22T02:18:03;0.73;;;0.70;;
39654;SDS011;25336;59.944;11.010;2024-03-22T02:20:29;1.40;;;0.93;;
39654;SDS011;25336;59.944;11.010;2024-03-22T02:22:55;1.02;;;0.63;;
39654;SDS011;25336;59.944;11.010;2024-03-22T02:25:20;2.38;;;0.90;;
39654;SDS011;25336;59.944;11.010;2024-03-22T02:27:46;0.80;;;0.80;;
39654;SDS011;25336;59.944;11.010;2024-03-22T02:30:15;0.70;;;0.65;;
39654;SDS011;25336;59.944;11.010;2024-03-22T02:32:42;1.90;;;0.80;;
39654;SDS011;25336;59.944;11.010;2024-03-22T02:35:08;0.60;;;0.60;;
39654;SDS011;25336;59.944;11.010;2024-03-22T02:37:33;1.83;;;1.02;;
39654;SDS011;25336;59.944;11.010;2024-03-22T02:39:59;1.38;;;0.90;;
39654;SDS011;25336;59.944;11.010;2024-03-22T02:42:27;2.35;;;0.90;;
39654;SDS011;25336;59.944;11.010;2024-03-22T02:44:52;1.40;;;0.85;;
39654;SDS011;25336;59.944;11.010;2024-03-22T02:47:18;0.80;;;0.80;;
39654;SDS011;25336;59.944;11.010;2024-03-22T02:49:44;0.75;;;0.75;;
39654;SDS011;25336;59.944;11.010;2024-03-22T02:52:10;1.02;;;0.88;;
39654;SDS011;25336;59.944;11.010;2024-03-22T02:54:35;0.73;;;0.73;;
39654;SDS011;25336;59.944;11.010;2024-03-22T02:57:01;1.00;;;0.98;;
39654;SDS011;25336;59.944;11.010;2024-03-22T02:59:27;0.80;;;0.80;;
39654;SDS011;25336;59.944;11.010;2024-03-22T03:01:53;1.00;;;0.70;;
39654;SDS011;25336;59.944;11.010;2024-03-22T03:04:19;0.90;;;0.77;;
39654;SDS011;25336;59.944;11.010;2024-03-22T03:06:45;2.20;;;0.90;;
39654;SDS011;25336;59.944;11.010;2024-03-22T03:09:11;1.17;;;0.95;;
39654;SDS011;25336;59.944;11.010;2024-03-22T03:11:40;0.88;;;0.88;;
39654;SDS011;25336;59.944;11.010;2024-03-22T03:14:06;1.20;;;0.95;;
39654;SDS011;25336;59.944;11.010;2024-03-22T03:16:33;0.98;;;0.98;;
39654;SDS011;25336;59.944;11.010;2024-03-22T03:18:58;1.02;;;0.90;;
39654;SDS011;25336;59.944;11.010;2024-03-22T03:21:24;0.85;;;0.85;;
39654;SDS011;25336;59.944;11.010;2024-03-22T03:23:50;1.67;;;0.90;;
39654;SDS011;25336;59.944;11.010;2024-03-22T03:26:15;1.23;;;1.13;;
39654;SDS011;25336;59.944;11.010;2024-03-22T03:28:41;0.80;;;0.80;;
39654;SDS011;25336;59.944;11.010;2024-03-22T03:31:09;1.00;;;1.00;;
39654;SDS011;25336;59.944;11.010;2024-03-22T03:33:34;1.10;;;0.90;;
39654;SDS011;25336;59.944;11.010;2024-03-22T03:36:00;0.80;;;0.80;;
39654;SDS011;25336;59.944;11.010;2024-03-22T03:38:26;1.10;;;0.90;;
39654;SDS011;25336;59.944;11.010;2024-03-22T03:40:51;1.10;;;1.00;;
39654;SDS011;25336;59.944;11.010;2024-03-22T03:43:19;0.82;;;0.82;;
39654;SDS011;25336;59.944;11.010;2024-03-22T03:45:45;1.10;;;1.10;;
39654;SDS011;25336;59.944;11.010;2024-03-22T03:48:11;1.52;;;0.93;;
39654;SDS011;25336;59.944;11.010;2024-03-22T03:50:36;1.95;;;0.80;;
39654;SDS011;25336;59.944;11.010;2024-03-22T03:53:02;1.95;;;1.13;;
39654;SDS011;25336;59.944;11.010;2024-03-22T03:55:27;2.05;;;1.15;;
39654;SDS011;25336;59.944;11.010;2024-03-22T03:57:53;0.85;;;0.80;;
39654;SDS011;25336;59.944;11.010;2024-03-22T04:00:19;2.03;;;1.00;;
39654;SDS011;25336;59.944;11.010;2024-03-22T04:02:45;1.42;;;1.33;;
39654;SDS011;25336;59.944;11.010;2024-03-22T04:05:11;0.82;;;0.82;;
39654;SDS011;25336;59.944;11.010;2024-03-22T04:07:36;1.48;;;1.00;;
39654;SDS011;25336;59.944;11.010;2024-03-22T04:10:04;1.38;;;0.95;;
39654;SDS011;25336;59.944;11.010;2024-03-22T04:12:31;1.48;;;1.00;;
39654;SDS011;25336;59.944;11.010;2024-03-22T04:14:56;1.15;;;0.75;;
39654;SDS011;25336;59.944;11.010;2024-03-22T04:17:22;2.13;;;1.38;;
39654;SDS011;25336;59.944;11.010;2024-03-22T04:19:49;2.58;;;2.10;;
39654;SDS011;25336;59.944;11.010;2024-03-22T04:22:15;1.45;;;1.35;;
39654;SDS011;25336;59.944;11.010;2024-03-22T04:24:40;1.90;;;1.52;;
39654;SDS011;25336;59.944;11.010;2024-03-22T04:27:06;1.27;;;1.15;;
39654;SDS011;25336;59.944;11.010;2024-03-22T04:29:32;1.25;;;1.13;;
39654;SDS011;25336;59.944;11.010;2024-03-22T04:31:58;2.25;;;1.48;;
39654;SDS011;25336;59.944;11.010;2024-03-22T04:34:24;1.50;;;1.13;;
39654;SDS011;25336;59.944;11.010;2024-03-22T04:36:50;1.80;;;1.17;;
39654;SDS011;25336;59.944;11.010;2024-03-22T04:39:17;1.38;;;1.00;;
39654;SDS011;25336;59.944;11.010;2024-03-22T04:41:44;1.27;;;1.13;;
39654;SDS011;25336;59.944;11.010;2024-03-22T04:44:10;1.70;;;1.30;;
39654;SDS011;25336;59.944;11.010;2024-03-22T04:46:35;2.10;;;1.20;;
39654;SDS011;25336;59.944;11.010;2024-03-22T04:49:01;1.10;;;1.02;;
39654;SDS011;25336;59.944;11.010;2024-03-22T04:51:26;1.45;;;1.20;;
39654;SDS011;25336;59.944;11.010;2024-03-22T04:53:52;1.95;;;1.65;;
39654;SDS011;25336;59.944;11.010;2024-03-22T04:56:18;2.00;;;1.20;;
39654;SDS011;25336;59.944;11.010;2024-03-22T04:58:43;4.28;;;1.48;;
39654;SDS011;25336;59.944;11.010;2024-03-22T05:01:09;1.85;;;1.38;;
39654;SDS011;25336;59.944;11.010;2024-03-22T05:03:38;1.95;;;1.60;;
39654;SDS011;25336;59.944;11.010;2024-03-22T05:06:04;1.20;;;1.10;;
39654;SDS011;25336;59.944;11.010;2024-03-22T05:08:31;3.60;;;1.33;;
39654;SDS011;25336;59.944;11.010;2024-03-22T05:10:57;1.42;;;1.30;;
39654;SDS011;25336;59.944;11.010;2024-03-22T05:13:23;2.35;;;1.48;;
39654;SDS011;25336;59.944;11.010;2024-03-22T05:15:49;1.40;;;1.30;;
39654;SDS011;25336;59.944;11.010;2024-03-22T05:18:14;1.38;;;1.17;;
39654;SDS011;25336;59.944;11.010;2024-03-22T05:20:40;1.67;;;1.30;;
39654;SDS011;25336;59.944;11.010;2024-03-22T05:23:06;5.30;;;1.60;;
39654;SDS011;25336;59.944;11.010;2024-03-22T05:25:31;2.35;;;1.58;;
39654;SDS011;25336;59.944;11.010;2024-03-22T05:27:57;1.92;;;1.60;;
39654;SDS011;25336;59.944;11.010;2024-03-22T05:30:23;2.33;;;1.58;;
39654;SDS011;25336;59.944;11.010;2024-03-22T05:32:48;2.47;;;1.52;;
39654;SDS011;25336;59.944;11.010;2024-03-22T05:35:15;3.78;;;1.90;;
39654;SDS011;25336;59.944;11.010;2024-03-22T05:37:41;4.07;;;1.90;;
39654;SDS011;25336;59.944;11.010;2024-03-22T05:40:06;4.97;;;1.70;;
39654;SDS011;25336;59.944;11.010;2024-03-22T05:42:33;1.98;;;1.88;;
39654;SDS011;25336;59.944;11.010;2024-03-22T05:44:59;5.85;;;1.58;;
39654;SDS011;25336;59.944;11.010;2024-03-22T05:47:25;2.03;;;1.88;;
39654;SDS011;25336;59.944;11.010;2024-03-22T05:49:51;2.33;;;1.77;;
39654;SDS011;25336;59.944;11.010;2024-03-22T05:52:17;1.73;;;1.63;;
39654;SDS011;25336;59.944;11.010;2024-03-22T05:54:43;2.83;;;1.85;;
39654;SDS011;25336;59.944;11.010;2024-03-22T05:57:09;2.00;;;1.80;;
39654;SDS011;25336;59.944;11.010;2024-03-22T05:59:35;3.42;;;1.98;;
39654;SDS011;25336;59.944;11.010;2024-03-22T06:02:01;2.70;;;1.83;;
39654;SDS011;25336;59.944;11.010;2024-03-22T06:04:27;2.63;;;1.70;;
39654;SDS011;25336;59.944;11.010;2024-03-22T06:06:52;2.88;;;1.75;;
39654;SDS011;25336;59.944;11.010;2024-03-22T06:09:18;1.88;;;1.42;;
39654;SDS011;25336;59.944;11.010;2024-03-22T06:11:52;6.82;;;1.85;;
39654;SDS011;25336;59.944;11.010;2024-03-22T06:14:18;4.63;;;1.85;;
39654;SDS011;25336;59.944;11.010;2024-03-22T06:16:43;2.53;;;2.00;;
39654;SDS011;25336;59.944;11.010;2024-03-22T06:19:09;4.32;;;1.92;;
39654;SDS011;25336;59.944;11.010;2024-03-22T06:21:35;2.30;;;1.85;;
39654;SDS011;25336;59.944;11.010;2024-03-22T06:24:01;2.53;;;1.85;;
39654;SDS011;25336;59.944;11.010;2024-03-22T06:26:28;3.88;;;1.92;;
39654;SDS011;25336;59.944;11.010;2024-03-22T06:28:54;4.28;;;2.95;;
39654;SDS011;25336;59.944;11.010;2024-03-22T06:31:19;5.00;;;2.20;;
39654;SDS011;25336;59.944;11.010;2024-03-22T06:33:48;2.55;;;1.85;;
39654;SDS011;25336;59.944;11.010;2024-03-22T06:36:14;4.15;;;2.17;;
39654;SDS011;25336;59.944;11.010;2024-03-22T06:38:39;3.10;;;2.05;;
39654;SDS011;25336;59.944;11.010;2024-03-22T06:41:05;3.70;;;2.00;;
39654;SDS011;25336;59.944;11.010;2024-03-22T06:43:30;2.92;;;1.92;;
39654;SDS011;25336;59.944;11.010;2024-03-22T06:45:56;3.17;;;2.05;;
39654;SDS011;25336;59.944;11.010;2024-03-22T06:48:22;2.45;;;2.15;;
39654;SDS011;25336;59.944;11.010;2024-03-22T06:50:47;3.92;;;2.80;;
39654;SDS011;25336;59.944;11.010;2024-03-22T06:53:13;2.97;;;2.20;;
39654;SDS011;25336;59.944;11.010;2024-03-22T06:55:38;1.80;;;1.70;;
39654;SDS011;25336;59.944;11.010;2024-03-22T06:58:04;1.98;;;1.73;;
39654;SDS011;25336;59.944;11.010;2024-03-22T07:00:30;6.88;;;4.38;;
39654;SDS011;25336;59.944;11.010;2024-03-22T07:02:56;9.25;;;4.82;;
39654;SDS011;25336;59.944;11.010;2024-03-22T07:05:22;8.77;;;4.28;;
39654;SDS011;25336;59.944;11.010;2024-03-22T07:07:48;3.85;;;3.10;;
39654;SDS011;25336;59.944;11.010;2024-03-22T07:10:15;2.40;;;2.17;;
39654;SDS011;25336;59.944;11.010;2024-03-22T07:12:42;7.53;;;2.00;;
39654;SDS011;25336;59.944;11.010;2024-03-22T07:15:08;5.45;;;2.20;;
39654;SDS011;25336;59.944;11.010;2024-03-22T07:17:34;2.70;;;2.10;;
39654;SDS011;25336;59.944;11.010;2024-03-22T07:19:59;2.25;;;1.65;;
39654;SDS011;25336;59.944;11.010;2024-03-22T07:22:25;3.08;;;2.00;;
39654;SDS011;25336;59.944;11.010;2024-03-22T07:24:51;2.25;;;1.88;;
39654;SDS011;25336;59.944;11.010;2024-03-22T07:27:17;2.88;;;1.80;;
39654;SDS011;25336;59.944;11.010;2024-03-22T07:29:43;3.38;;;2.25;;
39654;SDS011;25336;59.944;11.010;2024-03-22T07:32:09;2.78;;;2.28;;
39654;SDS011;25336;59.944;11.010;2024-03-22T07:34:35;3.00;;;1.90;;
39654;SDS011;25336;59.944;11.010;2024-03-22T07:37:00;3.08;;;2.17;;
39654;SDS011;25336;59.944;11.010;2024-03-22T07:39:26;4.13;;;2.13;;
39654;SDS011;25336;59.944;11.010;2024-03-22T07:41:52;4.40;;;2.28;;
39654;SDS011;25336;59.944;11.010;2024-03-22T07:44:17;7.05;;;3.70;;
39654;SDS011;25336;59.944;11.010;2024-03-22T07:46:44;7.25;;;3.30;;
39654;SDS011;25336;59.944;11.010;2024-03-22T07:49:11;5.45;;;2.67;;
39654;SDS011;25336;59.944;11.010;2024-03-22T07:51:37;5.65;;;2.80;;
39654;SDS011;25336;59.944;11.010;2024-03-22T07:54:03;3.88;;;2.45;;
39654;SDS011;25336;59.944;11.010;2024-03-22T07:56:29;4.68;;;2.20;;
39654;SDS011;25336;59.944;11.010;2024-03-22T07:58:55;3.33;;;2.67;;
39654;SDS011;25336;59.944;11.010;2024-03-22T08:01:21;3.25;;;2.50;;
39654;SDS011;25336;59.944;11.010;2024-03-22T08:03:46;2.97;;;2.25;;
39654;SDS011;25336;59.944;11.010;2024-03-22T08:06:12;5.90;;;3.80;;
39654;SDS011;25336;59.944;11.010;2024-03-22T08:08:38;5.07;;;2.70;;
39654;SDS011;25336;59.944;11.010;2024-03-22T08:11:04;3.47;;;2.08;;
39654;SDS011;25336;59.944;11.010;2024-03-22T08:13:30;3.72;;;2.47;;
39654;SDS011;25336;59.944;11.010;2024-03-22T08:15:56;3.67;;;2.42;;
39654;SDS011;25336;59.944;11.010;2024-03-22T08:18:21;6.85;;;3.88;;
39654;SDS011;25336;59.944;11.010;2024-03-22T08:20:47;3.17;;;2.00;;
39654;SDS011;25336;59.944;11.010;2024-03-22T08:23:12;3.95;;;2.30;;
39654;SDS011;25336;59.944;11.010;2024-03-22T08:25:38;5.22;;;2.47;;
39654;SDS011;25336;59.944;11.010;2024-03-22T08:28:04;3.65;;;2.60;;
39654;SDS011;25336;59.944;11.010;2024-03-22T08:30:29;3.55;;;1.80;;
39654;SDS011;25336;59.944;11.010;2024-03-22T08:32:55;4.25;;;1.83;;
39654;SDS011;25336;59.944;11.010;2024-03-22T08:35:20;3.55;;;1.38;;
39654;SDS011;25336;59.944;11.010;2024-03-22T08:37:46;4.25;;;1.90;;
39654;SDS011;25336;59.944;11.010;2024-03-22T08:40:12;4.15;;;1.73;;
39654;SDS011;25336;59.944;11.010;2024-03-22T08:42:38;2.67;;;1.70;;
39654;SDS011;25336;59.944;11.010;2024-03-22T08:45:04;3.67;;;1.50;;
39654;SDS011;25336;59.944;11.010;2024-03-22T08:47:31;2.92;;;1.75;;
39654;SDS011;25336;59.944;11.010;2024-03-22T08:49:58;3.78;;;1.65;;
39654;SDS011;25336;59.944;11.010;2024-03-22T08:52:24;3.45;;;1.33;;
39654;SDS011;25336;59.944;11.010;2024-03-22T08:54:50;4.97;;;1.52;;
39654;SDS011;25336;59.944;11.010;2024-03-22T08:57:17;2.53;;;1.40;;
39654;SDS011;25336;59.944;11.010;2024-03-22T08:59:43;3.00;;;1.55;;
39654;SDS011;25336;59.944;11.010;2024-03-22T09:02:09;3.97;;;1.48;;
39654;SDS011;25336;59.944;11.010;2024-03-22T09:04:34;4.10;;;1.70;;
39654;SDS011;25336;59.944;11.010;2024-03-22T09:07:00;7.00;;;1.70;;
39654;SDS011;25336;59.944;11.010;2024-03-22T09:09:26;2.47;;;1.83;;
39654;SDS011;25336;59.944;11.010;2024-03-22T09:11:51;3.38;;;1.60;;
39654;SDS011;25336;59.944;11.010;2024-03-22T09:14:17;4.60;;;1.67;;
39654;SDS011;25336;59.944;11.010;2024-03-22T09:16:43;2.75;;;1.65;;
39654;SDS011;25336;59.944;11.010;2024-03-22T09:19:09;4.45;;;1.60;;
39654;SDS011;25336;59.944;11.010;2024-03-22T09:21:36;3.85;;;1.60;;
39654;SDS011;25336;59.944;11.010;2024-03-22T09:24:01;4.20;;;1.63;;
39654;SDS011;25336;59.944;11.010;2024-03-22T09:26:32;6.88;;;2.28;;
39654;SDS011;25336;59.944;11.010;2024-03-22T09:28:58;4.07;;;1.98;;
39654;SDS011;25336;59.944;11.010;2024-03-22T09:31:24;1.65;;;1.40;;
39654;SDS011;25336;59.944;11.010;2024-03-22T09:33:49;5.65;;;2.60;;
39654;SDS011;25336;59.944;11.010;2024-03-22T09:36:15;3.40;;;1.52;;
39654;SDS011;25336;59.944;11.010;2024-03-22T09:38:41;5.22;;;1.55;;
39654;SDS011;25336;59.944;11.010;2024-03-22T09:41:07;8.70;;;2.42;;
39654;SDS011;25336;59.944;11.010;2024-03-22T09:43:32;6.40;;;2.22;;
39654;SDS011;25336;59.944;11.010;2024-03-22T09:45:59;4.88;;;1.40;;
39654;SDS011;25336;59.944;11.010;2024-03-22T09:48:26;7.45;;;2.15;;
39654;SDS011;25336;59.944;11.010;2024-03-22T09:50:54;6.57;;;1.60;;
39654;SDS011;25336;59.944;11.010;2024-03-22T09:53:20;5.25;;;2.20;;
39654;SDS011;25336;59.944;11.010;2024-03-22T09:55:50;3.70;;;2.13;;
39654;SDS011;25336;59.944;11.010;2024-03-22T09:58:17;4.07;;;1.65;;
39654;SDS011;25336;59.944;11.010;2024-03-22T10:00:43;7.05;;;2.28;;
39654;SDS011;25336;59.944;11.010;2024-03-22T10:03:09;12.05;;;2.40;;
39654;SDS011;25336;59.944;11.010;2024-03-22T10:05:35;4.40;;;1.92;;
39654;SDS011;25336;59.944;11.010;2024-03-22T10:08:03;5.45;;;1.90;;
39654;SDS011;25336;59.944;11.010;2024-03-22T10:10:31;7.95;;;2.88;;
39654;SDS011;25336;59.944;11.010;2024-03-22T10:12:57;4.43;;;1.63;;
39654;SDS011;25336;59.944;11.010;2024-03-22T10:15:26;4.78;;;1.70;;
39654;SDS011;25336;59.944;11.010;2024-03-22T10:17:51;10.57;;;2.28;;
39654;SDS011;25336;59.944;11.010;2024-03-22T10:20:19;6.45;;;1.77;;
39654;SDS011;25336;59.944;11.010;2024-03-22T10:22:49;8.98;;;2.42;;
39654;SDS011;25336;59.944;11.010;2024-03-22T10:25:25;5.10;;;1.65;;
39654;SDS011;25336;59.944;11.010;2024-03-22T10:27:55;5.53;;;2.30;;
39654;SDS011;25336;59.944;11.010;2024-03-22T10:30:21;6.75;;;1.45;;
39654;SDS011;25336;59.944;11.010;2024-03-22T10:32:51;3.70;;;1.50;;
39654;SDS011;25336;59.944;11.010;2024-03-22T10:35:17;7.95;;;1.98;;
39654;SDS011;25336;59.944;11.010;2024-03-22T10:37:43;6.07;;;1.40;;
39654;SDS011;25336;59.944;11.010;2024-03-22T10:40:10;5.28;;;1.80;;
39654;SDS011;25336;59.944;11.010;2024-03-22T10:42:37;4.10;;;1.65;;
39654;SDS011;25336;59.944;11.010;2024-03-22T10:45:04;7.10;;;1.63;;
39654;SDS011;25336;59.944;11.010;2024-03-22T10:47:31;4.22;;;1.50;;
39654;SDS011;25336;59.944;11.010;2024-03-22T10:50:07;6.60;;;2.20;;
39654;SDS011;25336;59.944;11.010;2024-03-22T10:55:28;4.93;;;1.45;;
39654;SDS011;25336;59.944;11.010;2024-03-22T10:57:58;4.45;;;1.80;;
39654;SDS011;25336;59.944;11.010;2024-03-22T11:00:27;4.38;;;1.33;;
39654;SDS011;25336;59.944;11.010;2024-03-22T11:03:04;4.90;;;1.77;;
39654;SDS011;25336;59.944;11.010;2024-03-22T11:05:30;8.00;;;1.98;;
39654;SDS011;25336;59.944;11.010;2024-03-22T11:07:59;7.90;;;1.60;;
39654;SDS011;25336;59.944;11.010;2024-03-22T11:10:28;4.93;;;1.65;;
39654;SDS011;25336;59.944;11.010;2024-03-22T11:13:00;10.10;;;1.90;;
39654;SDS011;25336;59.944;11.010;2024-03-22T11:15:29;4.93;;;2.13;;
39654;SDS011;25336;59.944;11.010;2024-03-22T11:17:56;5.72;;;1.73;;
39654;SDS011;25336;59.944;11.010;2024-03-22T11:20:22;7.45;;;1.35;;
39654;SDS011;25336;59.944;11.010;2024-03-22T11:22:47;6.38;;;1.92;;
39654;SDS011;25336;59.944;11.010;2024-03-22T11:25:13;4.75;;;1.35;;
39654;SDS011;25336;59.944;11.010;2024-03-22T11:27:39;5.55;;;1.80;;
39654;SDS011;25336;59.944;11.010;2024-03-22T11:30:04;7.65;;;2.10;;
39654;SDS011;25336;59.944;11.010;2024-03-22T11:32:31;4.53;;;1.38;;
39654;SDS011;25336;59.944;11.010;2024-03-22T11:34:59;6.20;;;1.30;;
39654;SDS011;25336;59.944;11.010;2024-03-22T11:37:25;4.60;;;1.48;;
39654;SDS011;25336;59.944;11.010;2024-03-22T11:39:51;2.88;;;1.35;;
39654;SDS011;25336;59.944;11.010;2024-03-22T11:42:16;4.57;;;1.65;;
39654;SDS011;25336;59.944;11.010;2024-03-22T11:44:43;4.50;;;1.50;;
39654;SDS011;25336;59.944;11.010;2024-03-22T11:47:09;4.18;;;1.33;;
39654;SDS011;25336;59.944;11.010;2024-03-22T11:49:34;10.57;;;1.67;;
39654;SDS011;25336;59.944;11.010;2024-03-22T11:52:00;4.70;;;1.77;;
39654;SDS011;25336;59.944;11.010;2024-03-22T11:54:26;4.43;;;1.45;;
39654;SDS011;25336;59.944;11.010;2024-03-22T11:56:55;4.78;;;1.67;;
39654;SDS011;25336;59.944;11.010;2024-03-22T11:59:21;10.05;;;1.52;;
39654;SDS011;25336;59.944;11.010;2024-03-22T12:01:47;5.22;;;1.73;;
39654;SDS011;25336;59.944;11.010;2024-03-22T12:04:13;5.82;;;1.30;;
39654;SDS011;25336;59.944;11.010;2024-03-22T12:06:46;3.58;;;1.80;;
39654;SDS011;25336;59.944;11.010;2024-03-22T12:09:11;6.05;;;1.90;;
39654;SDS011;25336;59.944;11.010;2024-03-22T12:11:39;7.75;;;1.73;;
39654;SDS011;25336;59.944;11.010;2024-03-22T12:14:05;6.70;;;1.20;;
39654;SDS011;25336;59.944;11.010;2024-03-22T12:16:31;4.93;;;1.50;;
39654;SDS011;25336;59.944;11.010;2024-03-22T12:18:57;6.68;;;2.00;;
39654;SDS011;25336;59.944;11.010;2024-03-22T12:21:23;6.65;;;1.20;;
39654;SDS011;25336;59.944;11.010;2024-03-22T12:23:49;7.78;;;1.98;;
39654;SDS011;25336;59.944;11.010;2024-03-22T12:26:15;9.88;;;1.83;;
39654;SDS011;25336;59.944;11.010;2024-03-22T12:28:41;4.13;;;1.30;;
39654;SDS011;25336;59.944;11.010;2024-03-22T12:31:08;10.48;;;2.45;;
39654;SDS011;25336;59.944;11.010;2024-03-22T12:33:35;3.13;;;1.10;;
39654;SDS011;25336;59.944;11.010;2024-03-22T12:36:01;3.50;;;1.33;;
39654;SDS011;25336;59.944;11.010;2024-03-22T12:38:28;8.60;;;1.20;;
39654;SDS011;25336;59.944;11.010;2024-03-22T12:40:55;8.93;;;1.58;;
39654;SDS011;25336;59.944;11.010;2024-03-22T12:43:22;3.80;;;1.10;;
39654;SDS011;25336;59.944;11.010;2024-03-22T12:45:48;2.38;;;0.93;;
39654;SDS011;25336;59.944;11.010;2024-03-22T12:48:13;4.00;;;1.10;;
39654;SDS011;25336;59.944;11.010;2024-03-22T12:50:39;3.08;;;0.85;;
39654;SDS011;25336;59.944;11.010;2024-03-22T12:53:05;4.20;;;0.90;;
39654;SDS011;25336;59.944;11.010;2024-03-22T12:55:30;10.63;;;1.55;;
39654;SDS011;25336;59.944;11.010;2024-03-22T12:57:57;5.57;;;1.08;;
39654;SDS011;25336;59.944;11.010;2024-03-22T13:00:23;3.25;;;0.98;;
39654;SDS011;25336;59.944;11.010;2024-03-22T13:02:48;3.40;;;0.90;;
39654;SDS011;25336;59.944;11.010;2024-03-22T13:05:14;2.92;;;0.73;;
39654;SDS011;25336;59.944;11.010;2024-03-22T13:07:40;4.28;;;0.93;;
39654;SDS011;25336;59.944;11.010;2024-03-22T13:10:07;0.98;;;0.50;;
39654;SDS011;25336;59.944;11.010;2024-03-22T13:12:33;5.50;;;1.10;;
39654;SDS011;25336;59.944;11.010;2024-03-22T13:17:31;1.80;;;0.80;;
39654;SDS011;25336;59.944;11.010;2024-03-22T13:19:57;0.52;;;0.50;;
39654;SDS011;25336;59.944;11.010;2024-03-22T13:22:23;1.30;;;0.60;;
39654;SDS011;25336;59.944;11.010;2024-03-22T13:24:49;3.38;;;0.68;;
39654;SDS011;25336;59.944;11.010;2024-03-22T13:27:15;1.95;;;0.63;;
39654;SDS011;25336;59.944;11.010;2024-03-22T13:29:41;0.90;;;0.47;;
39654;SDS011;25336;59.944;11.010;2024-03-22T13:32:07;0.77;;;0.43;;
39654;SDS011;25336;59.944;11.010;2024-03-22T13:34:37;1.40;;;0.63;;
39654;SDS011;25336;59.944;11.010;2024-03-22T13:37:03;3.00;;;0.98;;
39654;SDS011;25336;59.944;11.010;2024-03-22T13:39:30;2.13;;;0.75;;
39654;SDS011;25336;59.944;11.010;2024-03-22T13:41:56;1.35;;;0.40;;
39654;SDS011;25336;59.944;11.010;2024-03-22T13:44:22;0.77;;;0.40;;
39654;SDS011;25336;59.944;11.010;2024-03-22T13:46:51;1.58;;;0.52;;
39654;SDS011;25336;59.944;11.010;2024-03-22T13:49:17;0.57;;;0.40;;
39654;SDS011;25336;59.944;11.010;2024-03-22T13:51:46;1.50;;;0.65;;
39654;SDS011;25336;59.944;11.010;2024-03-22T13:54:12;1.02;;;0.50;;
39654;SDS011;25336;59.944;11.010;2024-03-22T13:56:39;0.85;;;0.40;;
39654;SDS011;25336;59.944;11.010;2024-03-22T13:59:05;2.20;;;0.40;;
39654;SDS011;25336;59.944;11.010;2024-03-22T14:01:33;1.60;;;0.60;;
39654;SDS011;25336;59.944;11.010;2024-03-22T14:03:59;1.08;;;0.35;;
39654;SDS011;25336;59.944;11.010;2024-03-22T14:06:25;1.90;;;0.45;;
39654;SDS011;25336;59.944;11.010;2024-03-22T14:08:50;1.25;;;0.40;;
39654;SDS011;25336;59.944;11.010;2024-03-22T14:11:19;1.05;;;0.47;;
39654;SDS011;25336;59.944;11.010;2024-03-22T14:13:45;6.03;;;0.45;;
39654;SDS011;25336;59.944;11.010;2024-03-22T14:16:11;1.17;;;0.47;;
39654;SDS011;25336;59.944;11.010;2024-03-22T14:18:38;1.33;;;0.38;;
39654;SDS011;25336;59.944;11.010;2024-03-22T14:21:03;2.33;;;0.40;;
39654;SDS011;25336;59.944;11.010;2024-03-22T14:26:00;0.63;;;0.40;;
39654;SDS011;25336;59.944;11.010;2024-03-22T14:30:54;2.35;;;0.68;;
39654;SDS011;25336;59.944;11.010;2024-03-22T14:33:20;1.92;;;0.40;;
39654;SDS011;25336;59.944;11.010;2024-03-22T14:35:45;0.82;;;0.40;;
39654;SDS011;25336;59.944;11.010;2024-03-22T14:38:11;1.10;;;0.50;;